sensor_id;sensor_type;location;lat;lon;timestamp;P1;durP1;ratioP1;P2;durP2;ratioP2
22603;SDS011;11469;49.024;8.246;2024-01-25T00:01:08;23.50;;;4.00;;
22603;SDS011;11469;49.024;8.246;2024-01-25T00:03:34;24.27;;;4.40;;
22603;SDS011;11469;49.024;8.246;2024-01-25T00:06:00;35.72;;;6.03;;
22603;SDS011;11469;49.024;8.246;2024-01-25T00:08:25;32.97;;;5.22;;
22603;SDS011;11469;49.024;8.246;2024-01-25T00:10:51;23.80;;;4.47;;
22603;SDS011;11469;49.024;8.246;2024-01-25T00:13:16;25.98;;;4.85;;
22603;SDS011;11469;49.024;8.246;2024-01-25T00:15:42;35.08;;;5.93;;
22603;SDS011;11469;49.024;8.246;2024-01-25T00:18:07;28.88;;;4.80;;
22603;SDS011;11469;49.024;8.246;2024-01-25T00:20:32;27.77;;;5.57;;
22603;SDS011;11469;49.024;8.246;2024-01-25T00:22:58;31.35;;;4.82;;
22603;SDS011;11469;49.024;8.246;2024-01-25T00:25:23;39.45;;;4.50;;
22603;SDS011;11469;49.024;8.246;2024-01-25T00:27:49;33.75;;;4.60;;
22603;SDS011;11469;49.024;8.246;2024-01-25T00:30:14;34.38;;;5.10;;
22603;SDS011;11469;49.024;8.246;2024-01-25T00:32:40;31.45;;;4.38;;
22603;SDS011;11469;49.024;8.246;2024-01-25T00:35:05;31.98;;;5.03;;
22603;SDS011;11469;49.024;8.246;2024-01-25T00:37:31;29.98;;;5.00;;
22603;SDS011;11469;49.024;8.246;2024-01-25T00:39:57;34.35;;;5.25;;
22603;SDS011;11469;49.024;8.246;2024-01-25T00:42:22;33.40;;;5.30;;
22603;SDS011;11469;49.024;8.246;2024-01-25T00:44:49;28.35;;;4.53;;
22603;SDS011;11469;49.024;8.246;2024-01-25T00:47:15;32.63;;;4.85;;
22603;SDS011;11469;49.024;8.246;2024-01-25T00:49:40;23.65;;;4.80;;
22603;SDS011;11469;49.024;8.246;2024-01-25T00:52:06;30.35;;;5.00;;
22603;SDS011;11469;49.024;8.246;2024-01-25T00:54:32;23.55;;;4.35;;
22603;SDS011;11469;49.024;8.246;2024-01-25T00:56:58;26.20;;;5.28;;
22603;SDS011;11469;49.024;8.246;2024-01-25T00:59:23;25.25;;;4.18;;
22603;SDS011;11469;49.024;8.246;2024-01-25T01:01:49;38.50;;;6.30;;
22603;SDS011;11469;49.024;8.246;2024-01-25T01:04:18;27.38;;;5.32;;
22603;SDS011;11469;49.024;8.246;2024-01-25T01:06:45;28.15;;;4.32;;
22603;SDS011;11469;49.024;8.246;2024-01-25T01:09:12;38.35;;;5.50;;
22603;SDS011;11469;49.024;8.246;2024-01-25T01:11:40;30.90;;;4.60;;
22603;SDS011;11469;49.024;8.246;2024-01-25T01:14:05;26.92;;;4.07;;
22603;SDS011;11469;49.024;8.246;2024-01-25T01:16:31;28.48;;;5.45;;
22603;SDS011;11469;49.024;8.246;2024-01-25T01:18:58;39.35;;;5.63;;
22603;SDS011;11469;49.024;8.246;2024-01-25T01:21:30;26.95;;;4.57;;
22603;SDS011;11469;49.024;8.246;2024-01-25T01:23:57;37.65;;;5.15;;
22603;SDS011;11469;49.024;8.246;2024-01-25T01:26:22;25.35;;;4.25;;
22603;SDS011;11469;49.024;8.246;2024-01-25T01:28:48;26.85;;;4.45;;
22603;SDS011;11469;49.024;8.246;2024-01-25T01:31:13;33.38;;;4.82;;
22603;SDS011;11469;49.024;8.246;2024-01-25T01:33:39;34.90;;;5.38;;
22603;SDS011;11469;49.024;8.246;2024-01-25T01:36:04;34.42;;;4.93;;
22603;SDS011;11469;49.024;8.246;2024-01-25T01:38:30;32.75;;;5.05;;
22603;SDS011;11469;49.024;8.246;2024-01-25T01:40:55;26.90;;;4.57;;
22603;SDS011;11469;49.024;8.246;2024-01-25T01:43:20;28.48;;;4.88;;
22603;SDS011;11469;49.024;8.246;2024-01-25T01:45:48;37.05;;;4.75;;
22603;SDS011;11469;49.024;8.246;2024-01-25T01:48:14;31.23;;;4.80;;
22603;SDS011;11469;49.024;8.246;2024-01-25T01:50:40;29.52;;;5.03;;
22603;SDS011;11469;49.024;8.246;2024-01-25T01:53:05;34.58;;;5.78;;
22603;SDS011;11469;49.024;8.246;2024-01-25T01:55:31;27.48;;;5.20;;
22603;SDS011;11469;49.024;8.246;2024-01-25T01:57:57;35.83;;;5.45;;
22603;SDS011;11469;49.024;8.246;2024-01-25T02:00:26;35.40;;;5.78;;
22603;SDS011;11469;49.024;8.246;2024-01-25T02:02:51;24.60;;;5.00;;
22603;SDS011;11469;49.024;8.246;2024-01-25T02:05:17;39.92;;;5.75;;
22603;SDS011;11469;49.024;8.246;2024-01-25T02:07:42;32.40;;;5.55;;
22603;SDS011;11469;49.024;8.246;2024-01-25T02:10:08;31.60;;;4.90;;
22603;SDS011;11469;49.024;8.246;2024-01-25T02:12:35;39.47;;;6.20;;
22603;SDS011;11469;49.024;8.246;2024-01-25T02:15:01;36.42;;;7.18;;
22603;SDS011;11469;49.024;8.246;2024-01-25T02:17:26;31.98;;;5.22;;
22603;SDS011;11469;49.024;8.246;2024-01-25T02:19:51;44.58;;;5.07;;
22603;SDS011;11469;49.024;8.246;2024-01-25T02:22:18;34.05;;;5.50;;
22603;SDS011;11469;49.024;8.246;2024-01-25T02:24:44;34.40;;;5.68;;
22603;SDS011;11469;49.024;8.246;2024-01-25T02:27:10;23.45;;;4.18;;
22603;SDS011;11469;49.024;8.246;2024-01-25T02:29:35;33.72;;;6.20;;
22603;SDS011;11469;49.024;8.246;2024-01-25T02:32:02;36.38;;;6.10;;
22603;SDS011;11469;49.024;8.246;2024-01-25T02:34:27;36.85;;;5.38;;
22603;SDS011;11469;49.024;8.246;2024-01-25T02:36:52;40.22;;;6.18;;
22603;SDS011;11469;49.024;8.246;2024-01-25T02:39:18;34.78;;;5.22;;
22603;SDS011;11469;49.024;8.246;2024-01-25T02:41:43;32.08;;;4.85;;
22603;SDS011;11469;49.024;8.246;2024-01-25T02:44:09;41.92;;;5.70;;
22603;SDS011;11469;49.024;8.246;2024-01-25T02:46:36;30.73;;;4.93;;
22603;SDS011;11469;49.024;8.246;2024-01-25T02:49:01;34.70;;;5.57;;
22603;SDS011;11469;49.024;8.246;2024-01-25T02:51:27;39.97;;;5.53;;
22603;SDS011;11469;49.024;8.246;2024-01-25T02:53:52;34.08;;;4.97;;
22603;SDS011;11469;49.024;8.246;2024-01-25T02:56:17;29.55;;;4.82;;
22603;SDS011;11469;49.024;8.246;2024-01-25T02:58:43;47.47;;;5.70;;
22603;SDS011;11469;49.024;8.246;2024-01-25T03:01:08;30.50;;;5.15;;
22603;SDS011;11469;49.024;8.246;2024-01-25T03:03:34;41.15;;;6.20;;
22603;SDS011;11469;49.024;8.246;2024-01-25T03:05:59;32.88;;;5.28;;
22603;SDS011;11469;49.024;8.246;2024-01-25T03:08:25;42.05;;;5.70;;
22603;SDS011;11469;49.024;8.246;2024-01-25T03:10:50;30.40;;;5.45;;
22603;SDS011;11469;49.024;8.246;2024-01-25T03:13:16;38.92;;;6.90;;
22603;SDS011;11469;49.024;8.246;2024-01-25T03:15:42;32.42;;;4.80;;
22603;SDS011;11469;49.024;8.246;2024-01-25T03:18:09;37.17;;;5.55;;
22603;SDS011;11469;49.024;8.246;2024-01-25T03:20:34;25.60;;;4.93;;
22603;SDS011;11469;49.024;8.246;2024-01-25T03:22:59;32.10;;;4.80;;
22603;SDS011;11469;49.024;8.246;2024-01-25T03:25:25;25.08;;;4.43;;
22603;SDS011;11469;49.024;8.246;2024-01-25T03:27:50;36.42;;;5.55;;
22603;SDS011;11469;49.024;8.246;2024-01-25T03:30:15;39.08;;;6.35;;
22603;SDS011;11469;49.024;8.246;2024-01-25T03:32:41;31.88;;;5.07;;
22603;SDS011;11469;49.024;8.246;2024-01-25T03:35:06;30.17;;;4.18;;
22603;SDS011;11469;49.024;8.246;2024-01-25T03:37:32;31.40;;;4.55;;
22603;SDS011;11469;49.024;8.246;2024-01-25T03:39:58;36.63;;;6.07;;
22603;SDS011;11469;49.024;8.246;2024-01-25T03:42:23;31.95;;;6.03;;
22603;SDS011;11469;49.024;8.246;2024-01-25T03:44:48;34.97;;;5.72;;
22603;SDS011;11469;49.024;8.246;2024-01-25T03:47:14;28.83;;;5.00;;
22603;SDS011;11469;49.024;8.246;2024-01-25T03:49:39;28.85;;;4.88;;
22603;SDS011;11469;49.024;8.246;2024-01-25T03:52:05;33.88;;;6.15;;
22603;SDS011;11469;49.024;8.246;2024-01-25T03:54:30;39.63;;;5.55;;
22603;SDS011;11469;49.024;8.246;2024-01-25T03:56:56;38.63;;;5.85;;
22603;SDS011;11469;49.024;8.246;2024-01-25T03:59:21;27.17;;;4.85;;
22603;SDS011;11469;49.024;8.246;2024-01-25T04:01:47;25.45;;;4.65;;
22603;SDS011;11469;49.024;8.246;2024-01-25T04:04:13;37.40;;;5.88;;
22603;SDS011;11469;49.024;8.246;2024-01-25T04:06:40;38.90;;;6.47;;
22603;SDS011;11469;49.024;8.246;2024-01-25T04:09:07;39.55;;;5.22;;
22603;SDS011;11469;49.024;8.246;2024-01-25T04:11:35;30.45;;;5.20;;
22603;SDS011;11469;49.024;8.246;2024-01-25T04:14:01;36.17;;;5.30;;
22603;SDS011;11469;49.024;8.246;2024-01-25T04:16:27;38.13;;;6.63;;
22603;SDS011;11469;49.024;8.246;2024-01-25T04:18:52;39.50;;;6.03;;
22603;SDS011;11469;49.024;8.246;2024-01-25T04:21:18;40.17;;;6.22;;
22603;SDS011;11469;49.024;8.246;2024-01-25T04:23:43;31.20;;;5.75;;
22603;SDS011;11469;49.024;8.246;2024-01-25T04:26:08;34.28;;;5.18;;
22603;SDS011;11469;49.024;8.246;2024-01-25T04:28:34;46.95;;;5.95;;
22603;SDS011;11469;49.024;8.246;2024-01-25T04:30:59;25.88;;;5.07;;
22603;SDS011;11469;49.024;8.246;2024-01-25T04:33:24;36.60;;;4.82;;
22603;SDS011;11469;49.024;8.246;2024-01-25T04:35:50;34.53;;;4.45;;
22603;SDS011;11469;49.024;8.246;2024-01-25T04:38:15;35.00;;;6.20;;
22603;SDS011;11469;49.024;8.246;2024-01-25T04:40:40;36.20;;;5.00;;
22603;SDS011;11469;49.024;8.246;2024-01-25T04:43:06;47.00;;;6.07;;
22603;SDS011;11469;49.024;8.246;2024-01-25T04:45:31;41.03;;;5.88;;
22603;SDS011;11469;49.024;8.246;2024-01-25T04:47:57;38.53;;;5.95;;
22603;SDS011;11469;49.024;8.246;2024-01-25T04:50:22;29.98;;;5.20;;
22603;SDS011;11469;49.024;8.246;2024-01-25T04:52:48;28.65;;;5.13;;
22603;SDS011;11469;49.024;8.246;2024-01-25T04:55:13;39.63;;;5.57;;
22603;SDS011;11469;49.024;8.246;2024-01-25T04:57:38;37.88;;;5.85;;
22603;SDS011;11469;49.024;8.246;2024-01-25T05:00:04;33.63;;;4.70;;
22603;SDS011;11469;49.024;8.246;2024-01-25T05:02:30;31.10;;;5.03;;
22603;SDS011;11469;49.024;8.246;2024-01-25T05:04:55;31.00;;;5.30;;
22603;SDS011;11469;49.024;8.246;2024-01-25T05:07:20;30.15;;;5.18;;
22603;SDS011;11469;49.024;8.246;2024-01-25T05:09:47;30.92;;;5.38;;
22603;SDS011;11469;49.024;8.246;2024-01-25T05:12:12;34.85;;;5.03;;
22603;SDS011;11469;49.024;8.246;2024-01-25T05:14:37;31.88;;;5.10;;
22603;SDS011;11469;49.024;8.246;2024-01-25T05:17:03;31.98;;;4.80;;
22603;SDS011;11469;49.024;8.246;2024-01-25T05:19:28;38.40;;;5.22;;
22603;SDS011;11469;49.024;8.246;2024-01-25T05:21:54;36.92;;;5.75;;
22603;SDS011;11469;49.024;8.246;2024-01-25T05:24:19;33.45;;;5.00;;
22603;SDS011;11469;49.024;8.246;2024-01-25T05:26:44;29.08;;;4.63;;
22603;SDS011;11469;49.024;8.246;2024-01-25T05:29:10;37.17;;;5.05;;
22603;SDS011;11469;49.024;8.246;2024-01-25T05:31:35;34.65;;;5.18;;
22603;SDS011;11469;49.024;8.246;2024-01-25T05:34:00;36.28;;;6.00;;
22603;SDS011;11469;49.024;8.246;2024-01-25T05:36:26;37.42;;;6.25;;
22603;SDS011;11469;49.024;8.246;2024-01-25T05:38:51;36.80;;;5.38;;
22603;SDS011;11469;49.024;8.246;2024-01-25T05:41:16;36.58;;;6.03;;
22603;SDS011;11469;49.024;8.246;2024-01-25T05:43:42;30.58;;;5.68;;
22603;SDS011;11469;49.024;8.246;2024-01-25T05:46:07;43.08;;;5.82;;
22603;SDS011;11469;49.024;8.246;2024-01-25T05:48:34;38.53;;;6.07;;
22603;SDS011;11469;49.024;8.246;2024-01-25T05:51:00;27.48;;;5.00;;
22603;SDS011;11469;49.024;8.246;2024-01-25T05:53:25;40.13;;;5.57;;
22603;SDS011;11469;49.024;8.246;2024-01-25T05:55:50;30.75;;;5.22;;
22603;SDS011;11469;49.024;8.246;2024-01-25T05:58:16;37.40;;;6.97;;
22603;SDS011;11469;49.024;8.246;2024-01-25T06:00:42;38.25;;;6.70;;
22603;SDS011;11469;49.024;8.246;2024-01-25T06:03:07;29.70;;;5.22;;
22603;SDS011;11469;49.024;8.246;2024-01-25T06:05:33;30.60;;;5.20;;
22603;SDS011;11469;49.024;8.246;2024-01-25T06:07:58;30.10;;;6.15;;
22603;SDS011;11469;49.024;8.246;2024-01-25T06:10:24;44.10;;;9.00;;
22603;SDS011;11469;49.024;8.246;2024-01-25T06:12:49;35.38;;;7.65;;
22603;SDS011;11469;49.024;8.246;2024-01-25T06:15:14;57.45;;;9.55;;
22603;SDS011;11469;49.024;8.246;2024-01-25T06:17:40;37.13;;;7.40;;
22603;SDS011;11469;49.024;8.246;2024-01-25T06:20:05;34.08;;;5.50;;
22603;SDS011;11469;49.024;8.246;2024-01-25T06:22:31;43.60;;;5.80;;
22603;SDS011;11469;49.024;8.246;2024-01-25T06:24:57;42.67;;;6.07;;
22603;SDS011;11469;49.024;8.246;2024-01-25T06:27:22;42.85;;;4.95;;
22603;SDS011;11469;49.024;8.246;2024-01-25T06:29:47;44.42;;;5.80;;
22603;SDS011;11469;49.024;8.246;2024-01-25T06:32:13;46.05;;;5.85;;
22603;SDS011;11469;49.024;8.246;2024-01-25T06:34:38;40.40;;;7.35;;
22603;SDS011;11469;49.024;8.246;2024-01-25T06:37:03;35.72;;;6.80;;
22603;SDS011;11469;49.024;8.246;2024-01-25T06:39:29;40.42;;;5.50;;
22603;SDS011;11469;49.024;8.246;2024-01-25T06:41:54;45.25;;;7.10;;
22603;SDS011;11469;49.024;8.246;2024-01-25T06:44:20;36.33;;;4.97;;
22603;SDS011;11469;49.024;8.246;2024-01-25T06:46:45;30.85;;;5.47;;
22603;SDS011;11469;49.024;8.246;2024-01-25T06:49:11;34.55;;;5.95;;
22603;SDS011;11469;49.024;8.246;2024-01-25T06:51:36;36.63;;;5.82;;
22603;SDS011;11469;49.024;8.246;2024-01-25T06:54:02;45.83;;;5.47;;
22603;SDS011;11469;49.024;8.246;2024-01-25T06:56:27;40.25;;;5.25;;
22603;SDS011;11469;49.024;8.246;2024-01-25T06:58:52;43.33;;;6.00;;
22603;SDS011;11469;49.024;8.246;2024-01-25T07:01:21;33.10;;;4.85;;
22603;SDS011;11469;49.024;8.246;2024-01-25T07:03:47;31.98;;;5.97;;
22603;SDS011;11469;49.024;8.246;2024-01-25T07:06:12;44.47;;;6.50;;
22603;SDS011;11469;49.024;8.246;2024-01-25T07:08:38;37.97;;;6.45;;
22603;SDS011;11469;49.024;8.246;2024-01-25T07:11:03;39.30;;;5.95;;
22603;SDS011;11469;49.024;8.246;2024-01-25T07:13:29;41.92;;;6.28;;
22603;SDS011;11469;49.024;8.246;2024-01-25T07:15:54;46.72;;;6.90;;
22603;SDS011;11469;49.024;8.246;2024-01-25T07:18:19;38.92;;;5.28;;
22603;SDS011;11469;49.024;8.246;2024-01-25T07:20:45;41.72;;;6.15;;
22603;SDS011;11469;49.024;8.246;2024-01-25T07:23:10;58.53;;;7.63;;
22603;SDS011;11469;49.024;8.246;2024-01-25T07:25:36;50.85;;;8.13;;
22603;SDS011;11469;49.024;8.246;2024-01-25T07:28:02;45.40;;;7.40;;
22603;SDS011;11469;49.024;8.246;2024-01-25T07:30:27;46.78;;;7.32;;
22603;SDS011;11469;49.024;8.246;2024-01-25T07:32:53;46.70;;;7.45;;
22603;SDS011;11469;49.024;8.246;2024-01-25T07:35:18;51.13;;;8.00;;
22603;SDS011;11469;49.024;8.246;2024-01-25T07:37:44;31.65;;;6.53;;
22603;SDS011;11469;49.024;8.246;2024-01-25T07:40:09;37.97;;;7.40;;
22603;SDS011;11469;49.024;8.246;2024-01-25T07:42:36;35.78;;;6.60;;
22603;SDS011;11469;49.024;8.246;2024-01-25T07:45:01;52.30;;;13.98;;
22603;SDS011;11469;49.024;8.246;2024-01-25T07:47:26;51.05;;;11.63;;
22603;SDS011;11469;49.024;8.246;2024-01-25T07:49:52;49.33;;;10.88;;
22603;SDS011;11469;49.024;8.246;2024-01-25T07:52:17;64.60;;;16.83;;
22603;SDS011;11469;49.024;8.246;2024-01-25T07:54:43;49.40;;;11.00;;
22603;SDS011;11469;49.024;8.246;2024-01-25T07:57:09;44.88;;;9.60;;
22603;SDS011;11469;49.024;8.246;2024-01-25T07:59:34;38.25;;;8.73;;
22603;SDS011;11469;49.024;8.246;2024-01-25T08:02:00;38.28;;;8.50;;
22603;SDS011;11469;49.024;8.246;2024-01-25T08:04:25;41.63;;;7.00;;
22603;SDS011;11469;49.024;8.246;2024-01-25T08:06:51;47.60;;;7.03;;
22603;SDS011;11469;49.024;8.246;2024-01-25T08:09:17;42.63;;;6.45;;
22603;SDS011;11469;49.024;8.246;2024-01-25T08:11:43;43.60;;;6.78;;
22603;SDS011;11469;49.024;8.246;2024-01-25T08:14:09;37.05;;;5.88;;
22603;SDS011;11469;49.024;8.246;2024-01-25T08:16:36;39.40;;;5.80;;
22603;SDS011;11469;49.024;8.246;2024-01-25T08:19:01;35.63;;;6.85;;
22603;SDS011;11469;49.024;8.246;2024-01-25T08:21:27;38.15;;;5.38;;
22603;SDS011;11469;49.024;8.246;2024-01-25T08:23:52;39.85;;;7.57;;
22603;SDS011;11469;49.024;8.246;2024-01-25T08:26:18;33.25;;;6.00;;
22603;SDS011;11469;49.024;8.246;2024-01-25T08:28:43;41.70;;;6.18;;
22603;SDS011;11469;49.024;8.246;2024-01-25T08:31:09;45.25;;;6.32;;
22603;SDS011;11469;49.024;8.246;2024-01-25T08:33:35;33.50;;;5.60;;
22603;SDS011;11469;49.024;8.246;2024-01-25T08:36:01;30.50;;;5.93;;
22603;SDS011;11469;49.024;8.246;2024-01-25T08:38:26;40.70;;;6.43;;
22603;SDS011;11469;49.024;8.246;2024-01-25T08:40:51;40.58;;;6.10;;
22603;SDS011;11469;49.024;8.246;2024-01-25T08:43:17;46.67;;;6.40;;
22603;SDS011;11469;49.024;8.246;2024-01-25T08:45:43;30.35;;;5.20;;
22603;SDS011;11469;49.024;8.246;2024-01-25T08:48:08;34.38;;;6.00;;
22603;SDS011;11469;49.024;8.246;2024-01-25T08:50:34;32.42;;;5.07;;
22603;SDS011;11469;49.024;8.246;2024-01-25T08:53:01;32.63;;;5.60;;
22603;SDS011;11469;49.024;8.246;2024-01-25T08:55:26;29.55;;;5.32;;
22603;SDS011;11469;49.024;8.246;2024-01-25T08:57:51;36.38;;;6.07;;
22603;SDS011;11469;49.024;8.246;2024-01-25T09:00:17;25.95;;;5.18;;
22603;SDS011;11469;49.024;8.246;2024-01-25T09:02:43;41.65;;;5.78;;
22603;SDS011;11469;49.024;8.246;2024-01-25T09:05:08;42.72;;;6.18;;
22603;SDS011;11469;49.024;8.246;2024-01-25T09:07:34;29.35;;;5.68;;
22603;SDS011;11469;49.024;8.246;2024-01-25T09:10:00;39.33;;;4.75;;
22603;SDS011;11469;49.024;8.246;2024-01-25T09:12:26;30.13;;;4.53;;
22603;SDS011;11469;49.024;8.246;2024-01-25T09:14:51;35.28;;;5.20;;
22603;SDS011;11469;49.024;8.246;2024-01-25T09:17:16;30.60;;;4.60;;
22603;SDS011;11469;49.024;8.246;2024-01-25T09:19:49;29.98;;;5.38;;
22603;SDS011;11469;49.024;8.246;2024-01-25T09:22:16;40.42;;;4.93;;
22603;SDS011;11469;49.024;8.246;2024-01-25T09:24:44;39.13;;;5.68;;
22603;SDS011;11469;49.024;8.246;2024-01-25T09:27:09;31.92;;;4.88;;
22603;SDS011;11469;49.024;8.246;2024-01-25T09:29:35;31.90;;;5.03;;
22603;SDS011;11469;49.024;8.246;2024-01-25T09:32:02;24.05;;;3.97;;
22603;SDS011;11469;49.024;8.246;2024-01-25T09:34:28;30.70;;;4.30;;
22603;SDS011;11469;49.024;8.246;2024-01-25T09:36:53;32.75;;;5.78;;
22603;SDS011;11469;49.024;8.246;2024-01-25T09:39:19;31.85;;;4.47;;
22603;SDS011;11469;49.024;8.246;2024-01-25T09:41:44;28.90;;;4.38;;
22603;SDS011;11469;49.024;8.246;2024-01-25T09:44:10;28.90;;;4.65;;
22603;SDS011;11469;49.024;8.246;2024-01-25T09:46:36;40.63;;;4.32;;
22603;SDS011;11469;49.024;8.246;2024-01-25T09:49:02;31.73;;;4.88;;
22603;SDS011;11469;49.024;8.246;2024-01-25T09:51:33;29.70;;;4.32;;
22603;SDS011;11469;49.024;8.246;2024-01-25T09:54:03;38.15;;;4.82;;
22603;SDS011;11469;49.024;8.246;2024-01-25T09:56:30;28.33;;;4.43;;
22603;SDS011;11469;49.024;8.246;2024-01-25T09:58:57;32.72;;;5.22;;
22603;SDS011;11469;49.024;8.246;2024-01-25T10:01:24;28.80;;;5.47;;
22603;SDS011;11469;49.024;8.246;2024-01-25T10:03:49;26.73;;;4.22;;
22603;SDS011;11469;49.024;8.246;2024-01-25T10:06:15;41.42;;;5.80;;
22603;SDS011;11469;49.024;8.246;2024-01-25T10:08:41;31.58;;;5.20;;
22603;SDS011;11469;49.024;8.246;2024-01-25T10:11:07;27.02;;;5.85;;
22603;SDS011;11469;49.024;8.246;2024-01-25T10:13:46;29.67;;;4.93;;
22603;SDS011;11469;49.024;8.246;2024-01-25T10:18:41;34.10;;;5.30;;
22603;SDS011;11469;49.024;8.246;2024-01-25T10:21:11;33.85;;;7.20;;
22603;SDS011;11469;49.024;8.246;2024-01-25T10:23:38;31.67;;;5.72;;
22603;SDS011;11469;49.024;8.246;2024-01-25T10:26:03;29.35;;;5.13;;
22603;SDS011;11469;49.024;8.246;2024-01-25T10:28:29;41.55;;;5.10;;
22603;SDS011;11469;49.024;8.246;2024-01-25T10:31:00;31.63;;;5.68;;
22603;SDS011;11469;49.024;8.246;2024-01-25T10:33:26;30.58;;;4.63;;
22603;SDS011;11469;49.024;8.246;2024-01-25T10:35:55;32.97;;;5.35;;
22603;SDS011;11469;49.024;8.246;2024-01-25T10:38:27;22.07;;;4.80;;
22603;SDS011;11469;49.024;8.246;2024-01-25T10:40:55;28.75;;;4.63;;
22603;SDS011;11469;49.024;8.246;2024-01-25T10:43:22;31.42;;;5.88;;
22603;SDS011;11469;49.024;8.246;2024-01-25T10:45:47;36.35;;;4.88;;
22603;SDS011;11469;49.024;8.246;2024-01-25T10:48:13;27.75;;;4.85;;
22603;SDS011;11469;49.024;8.246;2024-01-25T10:50:39;36.70;;;4.53;;
22603;SDS011;11469;49.024;8.246;2024-01-25T10:53:05;44.10;;;6.10;;
22603;SDS011;11469;49.024;8.246;2024-01-25T10:55:32;41.05;;;6.22;;
22603;SDS011;11469;49.024;8.246;2024-01-25T10:57:58;29.83;;;5.03;;
22603;SDS011;11469;49.024;8.246;2024-01-25T11:00:23;33.72;;;5.28;;
22603;SDS011;11469;49.024;8.246;2024-01-25T11:02:50;33.05;;;5.65;;
22603;SDS011;11469;49.024;8.246;2024-01-25T11:05:17;30.52;;;5.20;;
22603;SDS011;11469;49.024;8.246;2024-01-25T11:07:47;24.02;;;3.85;;
22603;SDS011;11469;49.024;8.246;2024-01-25T11:12:51;32.72;;;4.63;;
22603;SDS011;11469;49.024;8.246;2024-01-25T11:15:23;28.77;;;4.82;;
22603;SDS011;11469;49.024;8.246;2024-01-25T11:17:55;24.30;;;4.93;;
22603;SDS011;11469;49.024;8.246;2024-01-25T11:20:26;28.35;;;4.82;;
22603;SDS011;11469;49.024;8.246;2024-01-25T11:22:56;30.13;;;5.32;;
22603;SDS011;11469;49.024;8.246;2024-01-25T11:25:26;29.83;;;5.03;;
22603;SDS011;11469;49.024;8.246;2024-01-25T11:27:53;28.95;;;5.32;;
22603;SDS011;11469;49.024;8.246;2024-01-25T11:30:19;31.30;;;5.05;;
22603;SDS011;11469;49.024;8.246;2024-01-25T11:32:48;30.90;;;7.03;;
22603;SDS011;11469;49.024;8.246;2024-01-25T11:35:14;30.25;;;4.47;;
22603;SDS011;11469;49.024;8.246;2024-01-25T11:37:44;29.08;;;5.38;;
22603;SDS011;11469;49.024;8.246;2024-01-25T11:40:14;41.80;;;5.05;;
22603;SDS011;11469;49.024;8.246;2024-01-25T11:42:42;28.45;;;5.90;;
22603;SDS011;11469;49.024;8.246;2024-01-25T11:45:12;31.00;;;5.47;;
22603;SDS011;11469;49.024;8.246;2024-01-25T11:47:38;38.53;;;5.30;;
22603;SDS011;11469;49.024;8.246;2024-01-25T11:50:05;28.33;;;5.25;;
22603;SDS011;11469;49.024;8.246;2024-01-25T11:52:31;25.42;;;4.13;;
22603;SDS011;11469;49.024;8.246;2024-01-25T11:54:58;22.45;;;4.00;;
22603;SDS011;11469;49.024;8.246;2024-01-25T11:57:26;26.73;;;4.18;;
22603;SDS011;11469;49.024;8.246;2024-01-25T11:59:53;27.95;;;4.53;;
22603;SDS011;11469;49.024;8.246;2024-01-25T12:02:20;22.95;;;4.35;;
22603;SDS011;11469;49.024;8.246;2024-01-25T12:04:46;27.33;;;4.90;;
22603;SDS011;11469;49.024;8.246;2024-01-25T12:07:12;29.05;;;5.10;;
22603;SDS011;11469;49.024;8.246;2024-01-25T12:09:37;34.10;;;5.13;;
22603;SDS011;11469;49.024;8.246;2024-01-25T12:12:03;33.90;;;4.15;;
22603;SDS011;11469;49.024;8.246;2024-01-25T12:14:30;25.83;;;4.13;;
22603;SDS011;11469;49.024;8.246;2024-01-25T12:16:55;25.90;;;5.32;;
22603;SDS011;11469;49.024;8.246;2024-01-25T12:19:21;32.67;;;5.07;;
22603;SDS011;11469;49.024;8.246;2024-01-25T12:21:46;32.78;;;5.78;;
22603;SDS011;11469;49.024;8.246;2024-01-25T12:24:12;22.20;;;4.93;;
22603;SDS011;11469;49.024;8.246;2024-01-25T12:26:38;20.45;;;3.67;;
22603;SDS011;11469;49.024;8.246;2024-01-25T12:29:03;25.00;;;4.55;;
22603;SDS011;11469;49.024;8.246;2024-01-25T12:31:30;25.98;;;4.45;;
22603;SDS011;11469;49.024;8.246;2024-01-25T12:33:55;25.80;;;4.30;;
22603;SDS011;11469;49.024;8.246;2024-01-25T12:36:21;28.48;;;4.38;;
22603;SDS011;11469;49.024;8.246;2024-01-25T12:38:46;31.23;;;4.82;;
22603;SDS011;11469;49.024;8.246;2024-01-25T12:41:13;27.45;;;4.53;;
22603;SDS011;11469;49.024;8.246;2024-01-25T12:43:39;25.98;;;4.47;;
22603;SDS011;11469;49.024;8.246;2024-01-25T12:46:05;23.05;;;4.30;;
22603;SDS011;11469;49.024;8.246;2024-01-25T12:48:30;17.80;;;4.88;;
22603;SDS011;11469;49.024;8.246;2024-01-25T12:50:55;22.95;;;4.28;;
22603;SDS011;11469;49.024;8.246;2024-01-25T12:53:21;31.92;;;4.40;;
22603;SDS011;11469;49.024;8.246;2024-01-25T12:55:47;19.80;;;4.00;;
22603;SDS011;11469;49.024;8.246;2024-01-25T12:58:13;28.13;;;5.25;;
22603;SDS011;11469;49.024;8.246;2024-01-25T13:00:38;30.27;;;5.07;;
22603;SDS011;11469;49.024;8.246;2024-01-25T13:03:03;32.72;;;4.50;;
22603;SDS011;11469;49.024;8.246;2024-01-25T13:05:29;23.33;;;4.60;;
22603;SDS011;11469;49.024;8.246;2024-01-25T13:07:58;26.20;;;4.53;;
22603;SDS011;11469;49.024;8.246;2024-01-25T13:10:24;22.52;;;4.20;;
22603;SDS011;11469;49.024;8.246;2024-01-25T13:12:50;24.92;;;4.80;;
22603;SDS011;11469;49.024;8.246;2024-01-25T13:15:15;14.52;;;3.40;;
22603;SDS011;11469;49.024;8.246;2024-01-25T13:17:41;21.13;;;5.05;;
22603;SDS011;11469;49.024;8.246;2024-01-25T13:20:07;24.80;;;4.45;;
22603;SDS011;11469;49.024;8.246;2024-01-25T13:22:33;21.10;;;4.10;;
22603;SDS011;11469;49.024;8.246;2024-01-25T13:24:59;25.55;;;4.32;;
22603;SDS011;11469;49.024;8.246;2024-01-25T13:27:25;27.25;;;5.32;;
22603;SDS011;11469;49.024;8.246;2024-01-25T13:29:52;28.80;;;4.00;;
22603;SDS011;11469;49.024;8.246;2024-01-25T13:32:18;26.45;;;4.20;;
22603;SDS011;11469;49.024;8.246;2024-01-25T13:34:43;23.70;;;5.03;;
22603;SDS011;11469;49.024;8.246;2024-01-25T13:37:09;26.88;;;4.40;;
22603;SDS011;11469;49.024;8.246;2024-01-25T13:39:34;27.05;;;4.30;;
22603;SDS011;11469;49.024;8.246;2024-01-25T13:41:59;25.92;;;4.63;;
22603;SDS011;11469;49.024;8.246;2024-01-25T13:44:25;22.63;;;4.55;;
22603;SDS011;11469;49.024;8.246;2024-01-25T13:46:50;27.45;;;5.03;;
22603;SDS011;11469;49.024;8.246;2024-01-25T13:49:16;20.33;;;4.88;;
22603;SDS011;11469;49.024;8.246;2024-01-25T13:51:43;30.77;;;5.70;;
22603;SDS011;11469;49.024;8.246;2024-01-25T13:54:09;21.30;;;4.57;;
22603;SDS011;11469;49.024;8.246;2024-01-25T13:56:34;26.25;;;4.75;;
22603;SDS011;11469;49.024;8.246;2024-01-25T13:58:59;24.00;;;5.18;;
22603;SDS011;11469;49.024;8.246;2024-01-25T14:01:25;27.88;;;5.70;;
22603;SDS011;11469;49.024;8.246;2024-01-25T14:03:50;25.27;;;4.75;;
22603;SDS011;11469;49.024;8.246;2024-01-25T14:06:16;16.52;;;3.60;;
22603;SDS011;11469;49.024;8.246;2024-01-25T14:08:42;22.00;;;4.85;;
22603;SDS011;11469;49.024;8.246;2024-01-25T14:11:07;31.15;;;4.03;;
22603;SDS011;11469;49.024;8.246;2024-01-25T14:13:34;21.27;;;4.07;;
22603;SDS011;11469;49.024;8.246;2024-01-25T14:15:59;22.73;;;4.30;;
22603;SDS011;11469;49.024;8.246;2024-01-25T14:18:27;27.95;;;6.18;;
22603;SDS011;11469;49.024;8.246;2024-01-25T14:20:52;19.27;;;4.28;;
22603;SDS011;11469;49.024;8.246;2024-01-25T14:23:18;16.75;;;3.88;;
22603;SDS011;11469;49.024;8.246;2024-01-25T14:25:43;16.33;;;3.58;;
22603;SDS011;11469;49.024;8.246;2024-01-25T14:28:10;22.75;;;3.85;;
22603;SDS011;11469;49.024;8.246;2024-01-25T14:30:35;19.50;;;4.50;;